Terminal Aerodrome Forecast
Issued by NWS Shreveport, LA

Home | Current Version | Previous Version | Text Only | Print | Product List | Glossary On
Versions: 1 2 3 4 5 6 7 8 9 10 11 12 13
000
FTUS44 KSHV 242359
TAFTYR
TAF
KTYR 242359Z 2500/2524 20004KT P6SM VCSH SCT050 BKN150
      TEMPO 2501/2503 -TSRA BKN050CB BKN150
     FM250300 14005KT P6SM SCT060 BKN250
     FM250900 17004KT P6SM FEW060 BKN150
     FM251500 28004KT P6SM FEW250
     FM251900 04007KT P6SM VCTS BKN050CB OVC250=

USA.gov is the U.S. government's official web portal to all federal, state and local government web resources and services.